KADS/ADS METAR and TAF weather

Enter ICAO airport designator
Station Type Date Time Source
KADS METAR 2019/10/16 18:47 UTC NOAA

KADS 161847Z 02008KT 10SM FEW160 BKN250 19/01 A3018


Station Type Date Time Source
KADS Decoded METAR 2019/10/16 18:47 UTC NOAA

Dallas / Addison Airport, TX, United States (KADS) 32-58N 096-50W
Oct 16, 2019 - 02:47 PM EDT / 2019.10.16 1847 UTC
Wind: from the NNE (020 degrees) at 9 MPH (8 KT):0
Visibility: 10 mile(s):0
Sky conditions: mostly cloudy
Temperature: 66 F (19 C)
Dew Point: 33 F (1 C)
Relative Humidity: 29%
Pressure (altimeter): 30.18 in. Hg (1022 hPa)
ob: KADS 161847Z 02008KT 10SM FEW160 BKN250 19/01 A3018
cycle: 19

Station Type Date Time Source
KADS TAF UTC NOAA

Error!

Example: see airport list